sensor_id;sensor_type;location;lat;lon;timestamp;P1;durP1;ratioP1;P2;durP2;ratioP2
21239;SDS011;10778;48.962;9.018;2022-07-10T00:00:31;6.63;;;4.28;;
21239;SDS011;10778;48.962;9.018;2022-07-10T00:02:57;6.75;;;4.68;;
21239;SDS011;10778;48.962;9.018;2022-07-10T00:05:24;4.90;;;4.40;;
21239;SDS011;10778;48.962;9.018;2022-07-10T00:07:51;7.13;;;4.20;;
21239;SDS011;10778;48.962;9.018;2022-07-10T00:10:17;5.00;;;4.07;;
21239;SDS011;10778;48.962;9.018;2022-07-10T00:12:45;5.88;;;4.60;;
21239;SDS011;10778;48.962;9.018;2022-07-10T00:15:12;4.82;;;4.13;;
21239;SDS011;10778;48.962;9.018;2022-07-10T00:17:38;4.95;;;4.40;;
21239;SDS011;10778;48.962;9.018;2022-07-10T00:20:05;5.00;;;4.50;;
21239;SDS011;10778;48.962;9.018;2022-07-10T00:22:33;6.15;;;4.68;;
21239;SDS011;10778;48.962;9.018;2022-07-10T00:25:01;5.57;;;4.50;;
21239;SDS011;10778;48.962;9.018;2022-07-10T00:27:27;5.28;;;4.65;;
21239;SDS011;10778;48.962;9.018;2022-07-10T00:29:53;4.78;;;4.20;;
21239;SDS011;10778;48.962;9.018;2022-07-10T00:32:19;5.68;;;5.07;;
21239;SDS011;10778;48.962;9.018;2022-07-10T00:34:45;6.72;;;4.93;;
21239;SDS011;10778;48.962;9.018;2022-07-10T00:37:11;5.78;;;4.97;;
21239;SDS011;10778;48.962;9.018;2022-07-10T00:39:37;6.50;;;5.55;;
21239;SDS011;10778;48.962;9.018;2022-07-10T00:42:10;5.68;;;5.05;;
21239;SDS011;10778;48.962;9.018;2022-07-10T00:44:37;7.38;;;5.50;;
21239;SDS011;10778;48.962;9.018;2022-07-10T00:47:04;6.95;;;4.93;;
21239;SDS011;10778;48.962;9.018;2022-07-10T00:49:34;5.75;;;4.95;;
21239;SDS011;10778;48.962;9.018;2022-07-10T00:52:03;7.80;;;5.00;;
21239;SDS011;10778;48.962;9.018;2022-07-10T00:54:31;5.80;;;5.00;;
21239;SDS011;10778;48.962;9.018;2022-07-10T00:56:59;6.70;;;5.60;;
21239;SDS011;10778;48.962;9.018;2022-07-10T00:59:26;6.32;;;5.72;;
21239;SDS011;10778;48.962;9.018;2022-07-10T01:01:53;6.55;;;5.80;;
21239;SDS011;10778;48.962;9.018;2022-07-10T01:04:19;6.82;;;5.40;;
21239;SDS011;10778;48.962;9.018;2022-07-10T01:06:45;8.73;;;5.68;;
21239;SDS011;10778;48.962;9.018;2022-07-10T01:09:11;6.18;;;5.57;;
21239;SDS011;10778;48.962;9.018;2022-07-10T01:11:37;8.25;;;6.00;;
21239;SDS011;10778;48.962;9.018;2022-07-10T01:14:04;7.07;;;6.05;;
21239;SDS011;10778;48.962;9.018;2022-07-10T01:16:30;7.35;;;5.95;;
21239;SDS011;10778;48.962;9.018;2022-07-10T01:18:57;8.13;;;6.10;;
21239;SDS011;10778;48.962;9.018;2022-07-10T01:21:27;7.30;;;5.68;;
21239;SDS011;10778;48.962;9.018;2022-07-10T01:23:54;7.72;;;6.10;;
21239;SDS011;10778;48.962;9.018;2022-07-10T01:26:21;8.65;;;5.40;;
21239;SDS011;10778;48.962;9.018;2022-07-10T01:28:50;9.20;;;6.00;;
21239;SDS011;10778;48.962;9.018;2022-07-10T01:31:18;9.43;;;5.93;;
21239;SDS011;10778;48.962;9.018;2022-07-10T01:33:45;9.48;;;6.25;;
21239;SDS011;10778;48.962;9.018;2022-07-10T01:36:12;6.82;;;6.13;;
21239;SDS011;10778;48.962;9.018;2022-07-10T01:38:39;7.47;;;5.90;;
21239;SDS011;10778;48.962;9.018;2022-07-10T01:41:06;10.55;;;6.53;;
21239;SDS011;10778;48.962;9.018;2022-07-10T01:43:37;8.45;;;6.50;;
21239;SDS011;10778;48.962;9.018;2022-07-10T01:46:03;10.88;;;7.20;;
21239;SDS011;10778;48.962;9.018;2022-07-10T01:48:30;7.45;;;6.55;;
21239;SDS011;10778;48.962;9.018;2022-07-10T01:50:56;8.75;;;6.78;;
21239;SDS011;10778;48.962;9.018;2022-07-10T01:53:23;10.10;;;7.35;;
21239;SDS011;10778;48.962;9.018;2022-07-10T01:55:49;9.48;;;7.53;;
21239;SDS011;10778;48.962;9.018;2022-07-10T01:58:15;9.98;;;8.35;;
21239;SDS011;10778;48.962;9.018;2022-07-10T02:00:41;13.18;;;8.60;;
21239;SDS011;10778;48.962;9.018;2022-07-10T02:03:07;11.50;;;8.60;;
21239;SDS011;10778;48.962;9.018;2022-07-10T02:05:51;11.85;;;8.35;;
21239;SDS011;10778;48.962;9.018;2022-07-10T02:08:17;10.27;;;8.90;;
21239;SDS011;10778;48.962;9.018;2022-07-10T02:10:43;10.85;;;8.98;;
21239;SDS011;10778;48.962;9.018;2022-07-10T02:13:10;12.70;;;9.65;;
21239;SDS011;10778;48.962;9.018;2022-07-10T02:15:40;11.73;;;9.70;;
21239;SDS011;10778;48.962;9.018;2022-07-10T02:18:07;11.90;;;10.05;;
21239;SDS011;10778;48.962;9.018;2022-07-10T02:20:33;12.02;;;10.20;;
21239;SDS011;10778;48.962;9.018;2022-07-10T02:23:00;13.02;;;10.90;;
21239;SDS011;10778;48.962;9.018;2022-07-10T02:25:26;12.77;;;10.40;;
21239;SDS011;10778;48.962;9.018;2022-07-10T02:27:53;13.73;;;11.25;;
21239;SDS011;10778;48.962;9.018;2022-07-10T02:30:19;16.17;;;11.02;;
21239;SDS011;10778;48.962;9.018;2022-07-10T02:32:45;12.20;;;10.90;;
21239;SDS011;10778;48.962;9.018;2022-07-10T02:35:11;14.63;;;11.50;;
21239;SDS011;10778;48.962;9.018;2022-07-10T02:37:37;14.95;;;11.50;;
21239;SDS011;10778;48.962;9.018;2022-07-10T02:40:03;15.98;;;11.35;;
21239;SDS011;10778;48.962;9.018;2022-07-10T02:42:29;13.68;;;12.13;;
21239;SDS011;10778;48.962;9.018;2022-07-10T02:44:56;13.88;;;11.55;;
21239;SDS011;10778;48.962;9.018;2022-07-10T02:47:21;14.27;;;12.18;;
21239;SDS011;10778;48.962;9.018;2022-07-10T02:49:47;16.17;;;12.13;;
21239;SDS011;10778;48.962;9.018;2022-07-10T02:52:13;15.32;;;11.93;;
21239;SDS011;10778;48.962;9.018;2022-07-10T02:54:39;13.10;;;11.27;;
21239;SDS011;10778;48.962;9.018;2022-07-10T02:57:05;14.00;;;12.00;;
21239;SDS011;10778;48.962;9.018;2022-07-10T02:59:32;14.43;;;11.65;;
21239;SDS011;10778;48.962;9.018;2022-07-10T03:01:58;13.25;;;11.85;;
21239;SDS011;10778;48.962;9.018;2022-07-10T03:04:23;13.60;;;11.50;;
21239;SDS011;10778;48.962;9.018;2022-07-10T03:06:49;14.13;;;12.23;;
21239;SDS011;10778;48.962;9.018;2022-07-10T03:09:15;14.00;;;11.75;;
21239;SDS011;10778;48.962;9.018;2022-07-10T03:11:41;13.40;;;11.52;;
21239;SDS011;10778;48.962;9.018;2022-07-10T03:14:07;13.73;;;12.25;;
21239;SDS011;10778;48.962;9.018;2022-07-10T03:16:33;12.65;;;11.32;;
21239;SDS011;10778;48.962;9.018;2022-07-10T03:18:59;14.23;;;12.65;;
21239;SDS011;10778;48.962;9.018;2022-07-10T03:21:25;16.27;;;11.45;;
21239;SDS011;10778;48.962;9.018;2022-07-10T03:23:51;14.93;;;11.50;;
21239;SDS011;10778;48.962;9.018;2022-07-10T03:26:17;15.45;;;11.45;;
21239;SDS011;10778;48.962;9.018;2022-07-10T03:28:43;12.18;;;10.73;;
21239;SDS011;10778;48.962;9.018;2022-07-10T03:31:09;12.43;;;10.95;;
21239;SDS011;10778;48.962;9.018;2022-07-10T03:33:35;14.40;;;11.77;;
21239;SDS011;10778;48.962;9.018;2022-07-10T03:36:01;13.38;;;11.20;;
21239;SDS011;10778;48.962;9.018;2022-07-10T03:38:27;15.02;;;11.30;;
21239;SDS011;10778;48.962;9.018;2022-07-10T03:40:53;12.93;;;10.35;;
21239;SDS011;10778;48.962;9.018;2022-07-10T03:43:19;14.30;;;10.23;;
21239;SDS011;10778;48.962;9.018;2022-07-10T03:45:45;12.40;;;10.88;;
21239;SDS011;10778;48.962;9.018;2022-07-10T03:48:11;12.25;;;10.20;;
21239;SDS011;10778;48.962;9.018;2022-07-10T03:50:37;11.90;;;9.48;;
21239;SDS011;10778;48.962;9.018;2022-07-10T03:53:03;13.50;;;9.82;;
21239;SDS011;10778;48.962;9.018;2022-07-10T03:55:29;12.63;;;9.10;;
21239;SDS011;10778;48.962;9.018;2022-07-10T03:57:55;10.85;;;8.85;;
21239;SDS011;10778;48.962;9.018;2022-07-10T04:00:25;9.38;;;8.20;;
21239;SDS011;10778;48.962;9.018;2022-07-10T04:02:58;9.05;;;7.45;;
21239;SDS011;10778;48.962;9.018;2022-07-10T04:05:26;10.98;;;7.93;;
21239;SDS011;10778;48.962;9.018;2022-07-10T04:07:52;9.73;;;7.50;;
21239;SDS011;10778;48.962;9.018;2022-07-10T04:10:19;9.13;;;7.00;;
21239;SDS011;10778;48.962;9.018;2022-07-10T04:12:45;8.48;;;6.55;;
21239;SDS011;10778;48.962;9.018;2022-07-10T04:15:11;9.93;;;6.38;;
21239;SDS011;10778;48.962;9.018;2022-07-10T04:17:37;7.22;;;6.00;;
21239;SDS011;10778;48.962;9.018;2022-07-10T04:20:03;10.85;;;6.15;;
21239;SDS011;10778;48.962;9.018;2022-07-10T04:22:29;8.35;;;6.00;;
21239;SDS011;10778;48.962;9.018;2022-07-10T04:24:55;8.18;;;5.85;;
21239;SDS011;10778;48.962;9.018;2022-07-10T04:27:21;8.65;;;5.82;;
21239;SDS011;10778;48.962;9.018;2022-07-10T04:29:48;6.55;;;5.68;;
21239;SDS011;10778;48.962;9.018;2022-07-10T04:32:14;8.60;;;5.43;;
21239;SDS011;10778;48.962;9.018;2022-07-10T04:34:41;7.80;;;5.35;;
21239;SDS011;10778;48.962;9.018;2022-07-10T04:37:07;8.75;;;5.43;;
21239;SDS011;10778;48.962;9.018;2022-07-10T04:39:37;9.82;;;5.50;;
21239;SDS011;10778;48.962;9.018;2022-07-10T04:42:04;7.10;;;5.07;;
21239;SDS011;10778;48.962;9.018;2022-07-10T04:44:31;7.38;;;4.70;;
21239;SDS011;10778;48.962;9.018;2022-07-10T04:46:57;5.90;;;4.38;;
21239;SDS011;10778;48.962;9.018;2022-07-10T04:49:24;8.70;;;4.55;;
21239;SDS011;10778;48.962;9.018;2022-07-10T04:51:50;7.72;;;4.25;;
21239;SDS011;10778;48.962;9.018;2022-07-10T04:54:16;7.00;;;3.88;;
21239;SDS011;10778;48.962;9.018;2022-07-10T04:56:42;7.32;;;4.25;;
21239;SDS011;10778;48.962;9.018;2022-07-10T04:59:09;7.80;;;3.72;;
21239;SDS011;10778;48.962;9.018;2022-07-10T05:01:36;9.10;;;3.58;;
21239;SDS011;10778;48.962;9.018;2022-07-10T05:04:03;4.97;;;3.30;;
21239;SDS011;10778;48.962;9.018;2022-07-10T05:06:29;6.75;;;3.45;;
21239;SDS011;10778;48.962;9.018;2022-07-10T05:08:56;5.60;;;3.28;;
21239;SDS011;10778;48.962;9.018;2022-07-10T05:11:22;6.10;;;3.25;;
21239;SDS011;10778;48.962;9.018;2022-07-10T05:13:48;6.45;;;3.80;;
21239;SDS011;10778;48.962;9.018;2022-07-10T05:16:15;4.72;;;3.67;;
21239;SDS011;10778;48.962;9.018;2022-07-10T05:18:41;7.93;;;3.80;;
21239;SDS011;10778;48.962;9.018;2022-07-10T05:21:07;8.38;;;3.90;;
21239;SDS011;10778;48.962;9.018;2022-07-10T05:23:34;6.97;;;4.18;;
21239;SDS011;10778;48.962;9.018;2022-07-10T05:26:00;5.18;;;3.70;;
21239;SDS011;10778;48.962;9.018;2022-07-10T05:28:26;6.05;;;3.45;;
21239;SDS011;10778;48.962;9.018;2022-07-10T05:30:52;5.38;;;3.30;;
21239;SDS011;10778;48.962;9.018;2022-07-10T05:33:18;8.50;;;3.33;;
21239;SDS011;10778;48.962;9.018;2022-07-10T05:35:44;5.32;;;3.28;;
21239;SDS011;10778;48.962;9.018;2022-07-10T05:38:10;4.95;;;2.45;;
21239;SDS011;10778;48.962;9.018;2022-07-10T05:40:36;9.57;;;2.92;;
21239;SDS011;10778;48.962;9.018;2022-07-10T05:43:02;4.93;;;2.63;;
21239;SDS011;10778;48.962;9.018;2022-07-10T05:45:29;6.38;;;2.50;;
21239;SDS011;10778;48.962;9.018;2022-07-10T05:47:55;3.22;;;2.20;;
21239;SDS011;10778;48.962;9.018;2022-07-10T05:50:21;4.43;;;2.30;;
21239;SDS011;10778;48.962;9.018;2022-07-10T05:52:47;5.00;;;2.17;;
21239;SDS011;10778;48.962;9.018;2022-07-10T05:55:13;6.13;;;2.22;;
21239;SDS011;10778;48.962;9.018;2022-07-10T05:57:40;5.00;;;2.30;;
21239;SDS011;10778;48.962;9.018;2022-07-10T06:00:06;4.57;;;2.10;;
21239;SDS011;10778;48.962;9.018;2022-07-10T06:02:39;5.78;;;2.10;;
21239;SDS011;10778;48.962;9.018;2022-07-10T06:05:06;4.07;;;2.00;;
21239;SDS011;10778;48.962;9.018;2022-07-10T06:07:33;3.00;;;1.70;;
21239;SDS011;10778;48.962;9.018;2022-07-10T06:09:59;3.50;;;1.77;;
21239;SDS011;10778;48.962;9.018;2022-07-10T06:12:26;3.33;;;1.65;;
21239;SDS011;10778;48.962;9.018;2022-07-10T06:14:52;4.22;;;1.88;;
21239;SDS011;10778;48.962;9.018;2022-07-10T06:17:18;4.70;;;1.90;;
21239;SDS011;10778;48.962;9.018;2022-07-10T06:19:44;4.03;;;1.73;;
21239;SDS011;10778;48.962;9.018;2022-07-10T06:22:10;4.75;;;1.77;;
21239;SDS011;10778;48.962;9.018;2022-07-10T06:24:54;5.22;;;1.85;;
21239;SDS011;10778;48.962;9.018;2022-07-10T06:27:20;4.72;;;1.80;;
21239;SDS011;10778;48.962;9.018;2022-07-10T06:29:46;4.40;;;1.73;;
21239;SDS011;10778;48.962;9.018;2022-07-10T06:32:12;5.63;;;1.90;;
21239;SDS011;10778;48.962;9.018;2022-07-10T06:34:38;4.55;;;1.80;;
21239;SDS011;10778;48.962;9.018;2022-07-10T06:37:04;3.55;;;1.60;;
21239;SDS011;10778;48.962;9.018;2022-07-10T06:39:33;3.85;;;1.80;;
21239;SDS011;10778;48.962;9.018;2022-07-10T06:42:01;5.78;;;1.77;;
21239;SDS011;10778;48.962;9.018;2022-07-10T06:44:28;5.57;;;1.70;;
21239;SDS011;10778;48.962;9.018;2022-07-10T06:46:54;2.88;;;1.52;;
21239;SDS011;10778;48.962;9.018;2022-07-10T06:49:40;3.85;;;1.50;;
21239;SDS011;10778;48.962;9.018;2022-07-10T06:52:06;3.63;;;1.58;;
21239;SDS011;10778;48.962;9.018;2022-07-10T06:54:33;5.38;;;1.42;;
21239;SDS011;10778;48.962;9.018;2022-07-10T06:56:59;4.00;;;1.55;;
21239;SDS011;10778;48.962;9.018;2022-07-10T06:59:26;3.28;;;1.48;;
21239;SDS011;10778;48.962;9.018;2022-07-10T07:01:52;4.57;;;1.65;;
21239;SDS011;10778;48.962;9.018;2022-07-10T07:04:18;3.00;;;1.40;;
21239;SDS011;10778;48.962;9.018;2022-07-10T07:06:44;5.28;;;1.33;;
21239;SDS011;10778;48.962;9.018;2022-07-10T07:09:11;5.18;;;1.33;;
21239;SDS011;10778;48.962;9.018;2022-07-10T07:11:37;3.60;;;1.40;;
21239;SDS011;10778;48.962;9.018;2022-07-10T07:14:03;6.60;;;1.63;;
21239;SDS011;10778;48.962;9.018;2022-07-10T07:16:29;3.58;;;1.40;;
21239;SDS011;10778;48.962;9.018;2022-07-10T07:19:11;3.83;;;1.45;;
21239;SDS011;10778;48.962;9.018;2022-07-10T07:21:45;3.35;;;1.30;;
21239;SDS011;10778;48.962;9.018;2022-07-10T07:24:30;4.72;;;1.20;;
21239;SDS011;10778;48.962;9.018;2022-07-10T07:26:56;3.38;;;1.33;;
21239;SDS011;10778;48.962;9.018;2022-07-10T07:29:22;3.70;;;1.40;;
21239;SDS011;10778;48.962;9.018;2022-07-10T07:31:48;3.70;;;1.35;;
21239;SDS011;10778;48.962;9.018;2022-07-10T07:34:14;5.88;;;1.50;;
21239;SDS011;10778;48.962;9.018;2022-07-10T07:36:40;7.07;;;1.38;;
21239;SDS011;10778;48.962;9.018;2022-07-10T07:39:06;4.45;;;1.48;;
21239;SDS011;10778;48.962;9.018;2022-07-10T07:41:32;5.25;;;1.20;;
21239;SDS011;10778;48.962;9.018;2022-07-10T07:43:58;4.28;;;1.15;;
21239;SDS011;10778;48.962;9.018;2022-07-10T07:46:24;4.50;;;1.38;;
21239;SDS011;10778;48.962;9.018;2022-07-10T07:48:50;4.72;;;1.33;;
21239;SDS011;10778;48.962;9.018;2022-07-10T07:51:16;3.53;;;1.10;;
21239;SDS011;10778;48.962;9.018;2022-07-10T07:53:43;5.57;;;1.50;;
21239;SDS011;10778;48.962;9.018;2022-07-10T07:56:09;3.67;;;1.10;;
21239;SDS011;10778;48.962;9.018;2022-07-10T07:58:35;4.32;;;1.30;;
21239;SDS011;10778;48.962;9.018;2022-07-10T08:01:01;3.75;;;1.25;;
21239;SDS011;10778;48.962;9.018;2022-07-10T08:03:28;3.35;;;0.90;;
21239;SDS011;10778;48.962;9.018;2022-07-10T08:05:54;3.53;;;1.08;;
21239;SDS011;10778;48.962;9.018;2022-07-10T08:08:20;4.18;;;1.20;;
21239;SDS011;10778;48.962;9.018;2022-07-10T08:10:46;3.28;;;1.15;;
21239;SDS011;10778;48.962;9.018;2022-07-10T08:13:12;4.65;;;1.00;;
21239;SDS011;10778;48.962;9.018;2022-07-10T08:15:38;2.80;;;1.20;;
21239;SDS011;10778;48.962;9.018;2022-07-10T08:18:04;3.75;;;1.40;;
21239;SDS011;10778;48.962;9.018;2022-07-10T08:20:30;3.75;;;1.20;;
21239;SDS011;10778;48.962;9.018;2022-07-10T08:22:56;4.22;;;1.10;;
21239;SDS011;10778;48.962;9.018;2022-07-10T08:25:23;6.63;;;1.23;;
21239;SDS011;10778;48.962;9.018;2022-07-10T08:27:49;3.83;;;1.30;;
21239;SDS011;10778;48.962;9.018;2022-07-10T08:30:16;3.83;;;1.17;;
21239;SDS011;10778;48.962;9.018;2022-07-10T08:32:42;2.47;;;0.90;;
21239;SDS011;10778;48.962;9.018;2022-07-10T08:35:08;4.40;;;1.25;;
21239;SDS011;10778;48.962;9.018;2022-07-10T08:37:42;2.70;;;1.20;;
21239;SDS011;10778;48.962;9.018;2022-07-10T08:40:11;3.10;;;1.10;;
21239;SDS011;10778;48.962;9.018;2022-07-10T08:42:39;2.50;;;1.02;;
21239;SDS011;10778;48.962;9.018;2022-07-10T08:45:06;4.13;;;1.20;;
21239;SDS011;10778;48.962;9.018;2022-07-10T08:47:34;3.25;;;1.08;;
21239;SDS011;10778;48.962;9.018;2022-07-10T08:50:00;4.28;;;1.40;;
21239;SDS011;10778;48.962;9.018;2022-07-10T08:55:03;4.28;;;1.27;;
21239;SDS011;10778;48.962;9.018;2022-07-10T08:57:30;3.83;;;1.08;;
21239;SDS011;10778;48.962;9.018;2022-07-10T08:59:57;2.90;;;1.15;;
21239;SDS011;10778;48.962;9.018;2022-07-10T09:02:23;3.50;;;1.15;;
21239;SDS011;10778;48.962;9.018;2022-07-10T09:04:49;2.58;;;0.98;;
21239;SDS011;10778;48.962;9.018;2022-07-10T09:07:15;4.80;;;1.10;;
21239;SDS011;10778;48.962;9.018;2022-07-10T09:09:52;4.07;;;1.00;;
21239;SDS011;10778;48.962;9.018;2022-07-10T09:12:23;4.88;;;1.20;;
21239;SDS011;10778;48.962;9.018;2022-07-10T09:14:50;3.58;;;1.23;;
21239;SDS011;10778;48.962;9.018;2022-07-10T09:17:17;4.57;;;1.17;;
21239;SDS011;10778;48.962;9.018;2022-07-10T09:19:43;4.07;;;1.20;;
21239;SDS011;10778;48.962;9.018;2022-07-10T09:22:10;2.97;;;1.00;;
21239;SDS011;10778;48.962;9.018;2022-07-10T09:24:38;3.53;;;1.17;;
21239;SDS011;10778;48.962;9.018;2022-07-10T09:27:06;3.10;;;1.10;;
21239;SDS011;10778;48.962;9.018;2022-07-10T09:29:44;4.45;;;1.27;;
21239;SDS011;10778;48.962;9.018;2022-07-10T09:32:14;2.90;;;1.10;;
21239;SDS011;10778;48.962;9.018;2022-07-10T09:34:43;3.17;;;1.10;;
21239;SDS011;10778;48.962;9.018;2022-07-10T09:42:26;3.22;;;1.23;;
21239;SDS011;10778;48.962;9.018;2022-07-10T09:47:36;5.55;;;1.20;;
21239;SDS011;10778;48.962;9.018;2022-07-10T09:50:03;4.00;;;1.10;;
21239;SDS011;10778;48.962;9.018;2022-07-10T09:52:29;4.75;;;1.17;;
21239;SDS011;10778;48.962;9.018;2022-07-10T09:54:56;4.43;;;1.60;;
21239;SDS011;10778;48.962;9.018;2022-07-10T09:57:23;9.63;;;5.82;;
21239;SDS011;10778;48.962;9.018;2022-07-10T09:59:53;4.97;;;1.50;;
21239;SDS011;10778;48.962;9.018;2022-07-10T10:02:22;6.18;;;1.30;;
21239;SDS011;10778;48.962;9.018;2022-07-10T10:04:48;5.68;;;1.50;;
21239;SDS011;10778;48.962;9.018;2022-07-10T10:07:16;5.65;;;1.40;;
21239;SDS011;10778;48.962;9.018;2022-07-10T10:09:50;4.05;;;1.30;;
21239;SDS011;10778;48.962;9.018;2022-07-10T10:12:27;5.03;;;1.27;;
21239;SDS011;10778;48.962;9.018;2022-07-10T10:14:58;5.25;;;1.58;;
21239;SDS011;10778;48.962;9.018;2022-07-10T10:17:26;30.50;;;27.25;;
21239;SDS011;10778;48.962;9.018;2022-07-10T10:19:54;6.75;;;3.47;;
21239;SDS011;10778;48.962;9.018;2022-07-10T10:22:40;4.15;;;1.35;;
21239;SDS011;10778;48.962;9.018;2022-07-10T10:25:08;6.28;;;3.67;;
21239;SDS011;10778;48.962;9.018;2022-07-10T10:27:35;4.82;;;1.85;;
21239;SDS011;10778;48.962;9.018;2022-07-10T10:30:02;4.50;;;2.13;;
21239;SDS011;10778;48.962;9.018;2022-07-10T10:32:29;2.38;;;1.17;;
21239;SDS011;10778;48.962;9.018;2022-07-10T10:34:55;4.10;;;1.30;;
21239;SDS011;10778;48.962;9.018;2022-07-10T10:37:28;2.95;;;1.17;;
21239;SDS011;10778;48.962;9.018;2022-07-10T10:39:59;3.35;;;1.58;;
21239;SDS011;10778;48.962;9.018;2022-07-10T10:42:38;4.28;;;2.13;;
21239;SDS011;10778;48.962;9.018;2022-07-10T10:58:47;2.85;;;1.10;;
21239;SDS011;10778;48.962;9.018;2022-07-10T11:06:41;2.17;;;0.82;;
21239;SDS011;10778;48.962;9.018;2022-07-10T11:09:21;3.22;;;0.90;;
21239;SDS011;10778;48.962;9.018;2022-07-10T11:11:57;3.28;;;1.02;;
21239;SDS011;10778;48.962;9.018;2022-07-10T11:14:45;3.00;;;1.02;;
21239;SDS011;10778;48.962;9.018;2022-07-10T11:17:16;2.08;;;0.88;;
21239;SDS011;10778;48.962;9.018;2022-07-10T11:19:42;3.10;;;1.00;;
21239;SDS011;10778;48.962;9.018;2022-07-10T11:30:24;4.13;;;0.90;;
21239;SDS011;10778;48.962;9.018;2022-07-10T11:32:50;3.00;;;0.90;;
21239;SDS011;10778;48.962;9.018;2022-07-10T11:35:16;3.45;;;0.77;;
21239;SDS011;10778;48.962;9.018;2022-07-10T11:37:50;2.60;;;0.80;;
21239;SDS011;10778;48.962;9.018;2022-07-10T11:40:17;3.50;;;0.98;;
21239;SDS011;10778;48.962;9.018;2022-07-10T11:42:48;3.53;;;0.90;;
21239;SDS011;10778;48.962;9.018;2022-07-10T11:45:23;4.20;;;1.00;;
21239;SDS011;10778;48.962;9.018;2022-07-10T11:48:01;2.17;;;0.90;;
21239;SDS011;10778;48.962;9.018;2022-07-10T11:50:27;1.77;;;0.63;;
21239;SDS011;10778;48.962;9.018;2022-07-10T11:52:53;1.58;;;0.70;;
21239;SDS011;10778;48.962;9.018;2022-07-10T11:55:21;3.65;;;0.90;;
21239;SDS011;10778;48.962;9.018;2022-07-10T11:57:48;3.33;;;0.70;;
21239;SDS011;10778;48.962;9.018;2022-07-10T12:00:48;2.42;;;0.95;;
21239;SDS011;10778;48.962;9.018;2022-07-10T12:03:19;3.50;;;0.80;;
21239;SDS011;10778;48.962;9.018;2022-07-10T12:05:47;3.47;;;1.00;;
21239;SDS011;10778;48.962;9.018;2022-07-10T12:08:16;1.83;;;0.80;;
21239;SDS011;10778;48.962;9.018;2022-07-10T12:10:43;1.90;;;0.80;;
21239;SDS011;10778;48.962;9.018;2022-07-10T12:13:09;2.20;;;0.80;;
21239;SDS011;10778;48.962;9.018;2022-07-10T12:15:37;2.50;;;0.70;;
21239;SDS011;10778;48.962;9.018;2022-07-10T12:18:06;4.03;;;0.70;;
21239;SDS011;10778;48.962;9.018;2022-07-10T12:20:33;2.03;;;0.77;;
21239;SDS011;10778;48.962;9.018;2022-07-10T12:23:00;2.80;;;0.80;;
21239;SDS011;10778;48.962;9.018;2022-07-10T12:25:26;3.67;;;1.00;;
21239;SDS011;10778;48.962;9.018;2022-07-10T12:27:56;2.13;;;0.88;;
21239;SDS011;10778;48.962;9.018;2022-07-10T12:30:42;2.63;;;0.85;;
21239;SDS011;10778;48.962;9.018;2022-07-10T12:33:11;1.38;;;0.73;;
21239;SDS011;10778;48.962;9.018;2022-07-10T12:38:16;2.45;;;0.80;;
21239;SDS011;10778;48.962;9.018;2022-07-10T12:40:49;2.17;;;0.80;;
21239;SDS011;10778;48.962;9.018;2022-07-10T12:43:28;1.92;;;0.82;;
21239;SDS011;10778;48.962;9.018;2022-07-10T12:46:07;4.50;;;0.80;;
21239;SDS011;10778;48.962;9.018;2022-07-10T12:48:35;3.22;;;0.90;;
21239;SDS011;10778;48.962;9.018;2022-07-10T12:51:21;2.03;;;0.80;;
21239;SDS011;10778;48.962;9.018;2022-07-10T12:53:51;1.70;;;0.73;;
21239;SDS011;10778;48.962;9.018;2022-07-10T12:56:34;3.15;;;0.82;;
21239;SDS011;10778;48.962;9.018;2022-07-10T12:59:03;5.00;;;0.93;;
21239;SDS011;10778;48.962;9.018;2022-07-10T13:01:44;2.45;;;0.75;;
21239;SDS011;10778;48.962;9.018;2022-07-10T13:04:11;3.72;;;0.90;;
21239;SDS011;10778;48.962;9.018;2022-07-10T13:06:37;2.08;;;0.65;;
21239;SDS011;10778;48.962;9.018;2022-07-10T13:09:22;3.33;;;0.80;;
21239;SDS011;10778;48.962;9.018;2022-07-10T13:11:50;2.05;;;0.70;;
21239;SDS011;10778;48.962;9.018;2022-07-10T13:14:17;3.33;;;0.75;;
21239;SDS011;10778;48.962;9.018;2022-07-10T13:16:44;2.45;;;0.90;;
21239;SDS011;10778;48.962;9.018;2022-07-10T13:19:10;3.17;;;1.15;;
21239;SDS011;10778;48.962;9.018;2022-07-10T13:21:36;2.42;;;0.80;;
21239;SDS011;10778;48.962;9.018;2022-07-10T13:24:03;1.90;;;0.80;;
21239;SDS011;10778;48.962;9.018;2022-07-10T13:26:29;4.45;;;1.00;;
21239;SDS011;10778;48.962;9.018;2022-07-10T13:28:56;1.40;;;0.77;;
21239;SDS011;10778;48.962;9.018;2022-07-10T13:31:22;3.38;;;1.08;;
21239;SDS011;10778;48.962;9.018;2022-07-10T13:33:48;2.00;;;0.70;;
21239;SDS011;10778;48.962;9.018;2022-07-10T13:36:14;1.52;;;0.90;;
21239;SDS011;10778;48.962;9.018;2022-07-10T13:38:40;3.08;;;0.90;;
21239;SDS011;10778;48.962;9.018;2022-07-10T13:41:08;2.17;;;0.73;;
21239;SDS011;10778;48.962;9.018;2022-07-10T13:43:34;3.40;;;0.90;;
21239;SDS011;10778;48.962;9.018;2022-07-10T13:46:00;2.70;;;0.90;;
21239;SDS011;10778;48.962;9.018;2022-07-10T13:48:28;2.92;;;0.90;;
21239;SDS011;10778;48.962;9.018;2022-07-10T13:50:54;3.05;;;0.95;;
21239;SDS011;10778;48.962;9.018;2022-07-10T13:53:20;3.60;;;0.90;;
21239;SDS011;10778;48.962;9.018;2022-07-10T13:55:47;2.95;;;0.90;;
21239;SDS011;10778;48.962;9.018;2022-07-10T13:58:13;2.67;;;0.80;;
21239;SDS011;10778;48.962;9.018;2022-07-10T14:00:40;2.67;;;0.68;;
21239;SDS011;10778;48.962;9.018;2022-07-10T14:03:06;2.60;;;0.80;;
21239;SDS011;10778;48.962;9.018;2022-07-10T14:05:33;4.22;;;1.20;;
21239;SDS011;10778;48.962;9.018;2022-07-10T14:07:59;2.30;;;0.80;;
21239;SDS011;10778;48.962;9.018;2022-07-10T14:10:26;1.38;;;0.70;;
21239;SDS011;10778;48.962;9.018;2022-07-10T14:12:53;1.85;;;0.70;;
21239;SDS011;10778;48.962;9.018;2022-07-10T14:15:19;3.15;;;0.90;;
21239;SDS011;10778;48.962;9.018;2022-07-10T14:17:46;2.47;;;0.70;;
21239;SDS011;10778;48.962;9.018;2022-07-10T14:20:12;2.40;;;0.80;;
21239;SDS011;10778;48.962;9.018;2022-07-10T14:22:38;2.80;;;0.75;;
21239;SDS011;10778;48.962;9.018;2022-07-10T14:25:05;4.40;;;0.90;;
21239;SDS011;10778;48.962;9.018;2022-07-10T14:27:31;3.10;;;0.90;;
21239;SDS011;10778;48.962;9.018;2022-07-10T14:29:58;3.10;;;0.80;;
21239;SDS011;10778;48.962;9.018;2022-07-10T14:32:24;3.45;;;1.00;;
21239;SDS011;10778;48.962;9.018;2022-07-10T14:34:51;3.58;;;0.80;;
21239;SDS011;10778;48.962;9.018;2022-07-10T14:37:17;3.63;;;1.00;;
21239;SDS011;10778;48.962;9.018;2022-07-10T14:39:42;3.47;;;0.70;;
21239;SDS011;10778;48.962;9.018;2022-07-10T14:42:08;2.40;;;0.85;;
21239;SDS011;10778;48.962;9.018;2022-07-10T14:44:35;3.17;;;0.88;;
21239;SDS011;10778;48.962;9.018;2022-07-10T14:47:01;1.83;;;0.70;;
21239;SDS011;10778;48.962;9.018;2022-07-10T14:49:27;2.85;;;0.80;;
21239;SDS011;10778;48.962;9.018;2022-07-10T14:51:53;3.83;;;0.82;;
21239;SDS011;10778;48.962;9.018;2022-07-10T14:54:20;4.05;;;0.88;;
21239;SDS011;10778;48.962;9.018;2022-07-10T14:56:46;3.20;;;0.80;;
21239;SDS011;10778;48.962;9.018;2022-07-10T14:59:13;1.88;;;0.65;;
21239;SDS011;10778;48.962;9.018;2022-07-10T15:01:39;1.63;;;0.70;;
21239;SDS011;10778;48.962;9.018;2022-07-10T15:04:05;2.88;;;0.95;;
21239;SDS011;10778;48.962;9.018;2022-07-10T15:06:31;2.53;;;0.93;;
21239;SDS011;10778;48.962;9.018;2022-07-10T15:08:57;3.17;;;0.85;;
21239;SDS011;10778;48.962;9.018;2022-07-10T15:11:23;3.45;;;1.10;;
21239;SDS011;10778;48.962;9.018;2022-07-10T15:13:51;3.40;;;1.00;;
21239;SDS011;10778;48.962;9.018;2022-07-10T15:16:24;3.28;;;0.90;;
21239;SDS011;10778;48.962;9.018;2022-07-10T15:18:52;2.83;;;1.00;;
21239;SDS011;10778;48.962;9.018;2022-07-10T15:21:18;2.22;;;0.80;;
21239;SDS011;10778;48.962;9.018;2022-07-10T15:23:44;2.45;;;0.98;;
21239;SDS011;10778;48.962;9.018;2022-07-10T15:26:10;3.00;;;0.80;;